Straumvik — LEYJ — position and weather

sailwx.info

Track history (hours):
 
Tides and Currents Weather Stations Pressure Air Temp Water Temp Dewpoint Dewpoint Depression Visibility Wind Speed Wind Dir Waves Ship Positions

Straumvik

Last reported at 2016-May-27 01:32 UTC. Time now 2016-May-27 02:19 UTC.
Position N 59°42' E 005°28'.

Length 50 m; draft 5 m.

Type: Ship. MMSI: 258260000.

Date/timePositionNaut miles runAvg speedWind from/ knotsBaromVisibWave heightAir tempDewpointWater temp
2016-May-27 01:32N 59°42' E 005°28'0 0.0
2016-May-27 00:33N 59°42' E 005°28'0 0.0
2016-May-26 23:32N 59°42' E 005°28'0 0.0
2016-May-26 22:32N 59°42' E 005°28'0 0.0
2016-May-26 21:32N 59°42' E 005°28'0 0.0
2016-May-26 20:32N 59°42' E 005°28'0 0.0
2016-May-26 19:27N 59°42' E 005°28'0 0.0
2016-May-26 18:34N 59°42' E 005°28'0 0.0
2016-May-26 17:33N 59°42' E 005°28'0 0.0
2016-May-26 16:32N 59°42' E 005°28'0 0.0
2016-May-26 15:33N 59°42' E 005°28'3 2.7
2016-May-26 14:33N 59°44' E 005°31'8 8.4
2016-May-26 13:33N 59°39' E 005°45'5 5.5
2016-May-26 12:34N 59°40' E 005°56'0 0.0
2016-May-26 11:32N 59°40' E 005°56'0 0.0
2016-May-26 10:33N 59°40' E 005°56'0 0.0
2016-May-26 09:32N 59°40' E 005°56'0 0.0
2016-May-26 08:32N 59°40' E 005°56'0 0.0
2016-May-26 07:33N 59°40' E 005°56'0 0.0
2016-May-26 06:32N 59°40' E 005°56'4 4.3
2016-May-26 05:34N 59°39' E 005°48'8 8.1
2016-May-26 04:33N 59°43' E 005°34'3 3.3
2016-May-26 03:33N 59°42' E 005°28'0 0.0
2016-May-26 02:33N 59°42' E 005°28'0 0.0
2016-May-26 01:33N 59°42' E 005°28'0 0.0
2016-May-26 00:32N 59°42' E 005°28'0 0.0
2016-May-25 23:32N 59°42' E 005°28'0 0.0
2016-May-25 22:32N 59°42' E 005°28'0 0.0
2016-May-25 21:32N 59°42' E 005°28'0 0.0
2016-May-25 20:33N 59°42' E 005°28'0 0.0
2016-May-25 19:33N 59°42' E 005°28'0 0.0
2016-May-25 18:33N 59°42' E 005°28'0 0.0
2016-May-25 17:33N 59°42' E 005°28'0 0.0
2016-May-25 16:32N 59°42' E 005°28'0 0.0
2016-May-25 15:32N 59°42' E 005°28'0 0.1
2016-May-25 14:33N 59°42' E 005°28'6 5.5
2016-May-25 13:33N 59°42' E 005°39'7 7.1
2016-May-25 12:33N 59°39' E 005°52'2 1.9
2016-May-25 11:33N 59°40' E 005°56'0 0.0
2016-May-25 10:31N 59°40' E 005°56'0 0.0
2016-May-25 09:33N 59°40' E 005°56'0 0.0
2016-May-25 08:32N 59°40' E 005°56'0 0.0
2016-May-25 07:32N 59°40' E 005°56'0 0.0
2016-May-25 06:33N 59°40' E 005°56'5 5.2
2016-May-25 05:33N 59°39' E 005°46'8 7.8
2016-May-25 04:33N 59°45' E 005°36'8 8.3
2016-May-25 03:33N 59°53' E 005°32'11 8.1
2016-May-25 02:13N 60°02' E 005°19'6 9.0
2016-May-25 01:30N 60°09' E 005°16'8 8.8
2016-May-25 00:33N 60°16' E 005°09'5 4.5
2016-May-24 23:33N 60°21' E 005°08'0 0.0
2016-May-24 22:34N 60°21' E 005°08'0 0.0
2016-May-24 21:34N 60°21' E 005°08'1 0.7
2016-May-24 20:33N 60°20' E 005°08'7 7.0
2016-May-24 19:33N 60°26' E 005°15'38 0.8
2016-May-22 18:33N 59°50' E 005°33'7 7.2
2016-May-22 17:33N 59°43' E 005°28'9 7.4
2016-May-22 16:24N 59°36' E 005°17'6 6.9
2016-May-22 15:29N 59°30' E 005°13'7 6.8
2016-May-22 14:30N 59°24' E 005°17'7 7.4
2016-May-22 13:33N 59°17' E 005°20'6 6.1
2016-May-22 12:33N 59°13' E 005°29'7 7.1
2016-May-22 11:33N 59°09' E 005°40'7 7.1
2016-May-22 10:34N 59°04' E 005°51'7 7.2
2016-May-22 09:34N 58°58' E 005°57'6 1.4
2016-May-22 05:13N 58°53' E 006°05'3 4.0
2016-May-22 04:33N 58°55' E 006°02'4 4.1
2016-May-22 03:34N 58°58' E 005°56'4 3.6
2016-May-22 02:33N 59°01' E 005°52'4 4.2
2016-May-22 01:33N 59°05' E 005°50'5 4.8
2016-May-22 00:34N 59°08' E 005°44'5 5.3
2016-May-21 23:33N 59°11' E 005°34'6 5.7
2016-May-21 22:33N 59°14' E 005°26'4 4.2
2016-May-21 21:33N 59°17' E 005°20'5 4.7
2016-May-21 20:33N 59°22' E 005°18'2 2.1
2016-May-21 19:32N 59°24' E 005°16'4 4.6
2016-May-21 18:34N 59°28' E 005°13'8 7.3
2016-May-21 17:25N 59°36' E 005°17'7 7.8
2016-May-21 16:33N 59°42' E 005°24'8 8.4
2016-May-21 15:33N 59°48' E 005°35'8 8.2
2016-May-21 14:33N 59°55' E 005°45'2 0.1
2016-May-20 14:33N 59°56' E 005°47'9 0.7
2016-May-20 02:05N 59°55' E 005°30'4 8.3
2016-May-20 01:33N 59°51' E 005°33'7 7.0
2016-May-20 00:33N 59°44' E 005°30'7 7.2
2016-May-19 23:32N 59°39' E 005°20'24 6.9
2016-May-19 20:05N 59°15' E 005°21'4 6.6
2016-May-19 19:31N 59°14' E 005°27'7 7.3
2016-May-19 18:33N 59°10' E 005°39'7 7.5
2016-May-19 17:33N 59°05' E 005°50'7 7.1
2016-May-19 16:33N 58°58' E 005°55'5 1.2
2016-May-19 12:29N 58°55' E 006°02'7 7.7
2016-May-19 11:34N 58°58' E 005°49'7 7.1
2016-May-19 10:34N 58°51' E 005°45'0 0.0
2016-May-19 09:33N 58°51' E 005°45'0 0.0
2016-May-19 08:33N 58°51' E 005°45'0 0.0
2016-May-19 07:33N 58°51' E 005°45'0 0.3
2016-May-19 06:34N 58°51' E 005°45'8 7.7
2016-May-19 05:33N 58°59' E 005°48'8 7.9
2016-May-19 04:33N 59°07' E 005°47'8 8.2
2016-May-19 03:33N 59°11' E 005°33'8 7.6
2016-May-19 02:33N 59°15' E 005°21'23 7.7
2016-May-18 23:33N 59°39' E 005°19'9 8.8
2016-May-18 22:33N 59°44' E 005°33'8 8.2
2016-May-18 21:33N 59°39' E 005°46'5 4.9
2016-May-18 20:33N 59°40' E 005°56'0 0.0
2016-May-18 19:31N 59°40' E 005°56'0 0.0
2016-May-18 18:33N 59°40' E 005°56'0 0.0
2016-May-18 17:32N 59°40' E 005°56'5 5.3
2016-May-18 16:33N 59°36' E 005°49'0 0.1
2016-May-18 15:31N 59°36' E 005°48'0 0.0
2016-May-18 14:33N 59°36' E 005°48'0 0.0
2016-May-18 13:30N 59°36' E 005°48'5 4.8
2016-May-18 12:33N 59°40' E 005°43'8 8.4
2016-May-18 11:33N 59°47' E 005°35'  
Track history (hours):
 
Tides and Currents Weather Stations Pressure Air Temp Water Temp Dewpoint Dewpoint Depression Visibility Wind Speed Wind Dir Waves Ship Positions

Straumvik

Last reported at 2016-May-27 01:32 UTC. Time now 2016-May-27 02:19 UTC.
Position N 59°42' E 005°28'.

Length 50 m; draft 5 m.

Type: Ship. MMSI: 258260000.

Date/timePositionNaut miles runAvg speedWind from/ knotsBaromVisibWave heightAir tempDewpointWater temp
2016-May-27 01:32N 59°42' E 005°28'0 0.0
2016-May-27 00:33N 59°42' E 005°28'0 0.0
2016-May-26 23:32N 59°42' E 005°28'0 0.0
2016-May-26 22:32N 59°42' E 005°28'0 0.0
2016-May-26 21:32N 59°42' E 005°28'0 0.0
2016-May-26 20:32N 59°42' E 005°28'0 0.0
2016-May-26 19:27N 59°42' E 005°28'0 0.0
2016-May-26 18:34N 59°42' E 005°28'0 0.0
2016-May-26 17:33N 59°42' E 005°28'0 0.0
2016-May-26 16:32N 59°42' E 005°28'0 0.0
2016-May-26 15:33N 59°42' E 005°28'3 2.7
2016-May-26 14:33N 59°44' E 005°31'8 8.4
2016-May-26 13:33N 59°39' E 005°45'5 5.5
2016-May-26 12:34N 59°40' E 005°56'0 0.0
2016-May-26 11:32N 59°40' E 005°56'0 0.0
2016-May-26 10:33N 59°40' E 005°56'0 0.0
2016-May-26 09:32N 59°40' E 005°56'0 0.0
2016-May-26 08:32N 59°40' E 005°56'0 0.0
2016-May-26 07:33N 59°40' E 005°56'0 0.0
2016-May-26 06:32N 59°40' E 005°56'4 4.3
2016-May-26 05:34N 59°39' E 005°48'8 8.1
2016-May-26 04:33N 59°43' E 005°34'3 3.3
2016-May-26 03:33N 59°42' E 005°28'0 0.0
2016-May-26 02:33N 59°42' E 005°28'0 0.0
2016-May-26 01:33N 59°42' E 005°28'0 0.0
2016-May-26 00:32N 59°42' E 005°28'0 0.0
2016-May-25 23:32N 59°42' E 005°28'0 0.0
2016-May-25 22:32N 59°42' E 005°28'0 0.0
2016-May-25 21:32N 59°42' E 005°28'0 0.0
2016-May-25 20:33N 59°42' E 005°28'0 0.0
2016-May-25 19:33N 59°42' E 005°28'0 0.0
2016-May-25 18:33N 59°42' E 005°28'0 0.0
2016-May-25 17:33N 59°42' E 005°28'0 0.0
2016-May-25 16:32N 59°42' E 005°28'0 0.0
2016-May-25 15:32N 59°42' E 005°28'0 0.1
2016-May-25 14:33N 59°42' E 005°28'6 5.5
2016-May-25 13:33N 59°42' E 005°39'7 7.1
2016-May-25 12:33N 59°39' E 005°52'2 1.9
2016-May-25 11:33N 59°40' E 005°56'0 0.0
2016-May-25 10:31N 59°40' E 005°56'0 0.0
2016-May-25 09:33N 59°40' E 005°56'0 0.0
2016-May-25 08:32N 59°40' E 005°56'0 0.0
2016-May-25 07:32N 59°40' E 005°56'0 0.0
2016-May-25 06:33N 59°40' E 005°56'5 5.2
2016-May-25 05:33N 59°39' E 005°46'8 7.8
2016-May-25 04:33N 59°45' E 005°36'8 8.3
2016-May-25 03:33N 59°53' E 005°32'11 8.1
2016-May-25 02:13N 60°02' E 005°19'6 9.0
2016-May-25 01:30N 60°09' E 005°16'8 8.8
2016-May-25 00:33N 60°16' E 005°09'5 4.5
2016-May-24 23:33N 60°21' E 005°08'0 0.0
2016-May-24 22:34N 60°21' E 005°08'0 0.0
2016-May-24 21:34N 60°21' E 005°08'1 0.7
2016-May-24 20:33N 60°20' E 005°08'7 7.0
2016-May-24 19:33N 60°26' E 005°15'38 0.8
2016-May-22 18:33N 59°50' E 005°33'7 7.2
2016-May-22 17:33N 59°43' E 005°28'9 7.4
2016-May-22 16:24N 59°36' E 005°17'6 6.9
2016-May-22 15:29N 59°30' E 005°13'7 6.8
2016-May-22 14:30N 59°24' E 005°17'7 7.4
2016-May-22 13:33N 59°17' E 005°20'6 6.1
2016-May-22 12:33N 59°13' E 005°29'7 7.1
2016-May-22 11:33N 59°09' E 005°40'7 7.1
2016-May-22 10:34N 59°04' E 005°51'7 7.2
2016-May-22 09:34N 58°58' E 005°57'6 1.4
2016-May-22 05:13N 58°53' E 006°05'3 4.0
2016-May-22 04:33N 58°55' E 006°02'4 4.1
2016-May-22 03:34N 58°58' E 005°56'4 3.6
2016-May-22 02:33N 59°01' E 005°52'4 4.2
2016-May-22 01:33N 59°05' E 005°50'5 4.8
2016-May-22 00:34N 59°08' E 005°44'5 5.3
2016-May-21 23:33N 59°11' E 005°34'6 5.7
2016-May-21 22:33N 59°14' E 005°26'4 4.2
2016-May-21 21:33N 59°17' E 005°20'5 4.7
2016-May-21 20:33N 59°22' E 005°18'2 2.1
2016-May-21 19:32N 59°24' E 005°16'4 4.6
2016-May-21 18:34N 59°28' E 005°13'8 7.3
2016-May-21 17:25N 59°36' E 005°17'7 7.8
2016-May-21 16:33N 59°42' E 005°24'8 8.4
2016-May-21 15:33N 59°48' E 005°35'8 8.2
2016-May-21 14:33N 59°55' E 005°45'2 0.1
2016-May-20 14:33N 59°56' E 005°47'9 0.7
2016-May-20 02:05N 59°55' E 005°30'4 8.3
2016-May-20 01:33N 59°51' E 005°33'7 7.0
2016-May-20 00:33N 59°44' E 005°30'7 7.2
2016-May-19 23:32N 59°39' E 005°20'24 6.9
2016-May-19 20:05N 59°15' E 005°21'4 6.6
2016-May-19 19:31N 59°14' E 005°27'7 7.3
2016-May-19 18:33N 59°10' E 005°39'7 7.5
2016-May-19 17:33N 59°05' E 005°50'7 7.1
2016-May-19 16:33N 58°58' E 005°55'5 1.2
2016-May-19 12:29N 58°55' E 006°02'7 7.7
2016-May-19 11:34N 58°58' E 005°49'7 7.1
2016-May-19 10:34N 58°51' E 005°45'0 0.0
2016-May-19 09:33N 58°51' E 005°45'0 0.0
2016-May-19 08:33N 58°51' E 005°45'0 0.0
2016-May-19 07:33N 58°51' E 005°45'0 0.3
2016-May-19 06:34N 58°51' E 005°45'8 7.7
2016-May-19 05:33N 58°59' E 005°48'8 7.9
2016-May-19 04:33N 59°07' E 005°47'8 8.2
2016-May-19 03:33N 59°11' E 005°33'8 7.6
2016-May-19 02:33N 59°15' E 005°21'23 7.7
2016-May-18 23:33N 59°39' E 005°19'9 8.8
2016-May-18 22:33N 59°44' E 005°33'8 8.2
2016-May-18 21:33N 59°39' E 005°46'5 4.9
2016-May-18 20:33N 59°40' E 005°56'0 0.0
2016-May-18 19:31N 59°40' E 005°56'0 0.0
2016-May-18 18:33N 59°40' E 005°56'0 0.0
2016-May-18 17:32N 59°40' E 005°56'5 5.3
2016-May-18 16:33N 59°36' E 005°49'0 0.1
2016-May-18 15:31N 59°36' E 005°48'0 0.0
2016-May-18 14:33N 59°36' E 005°48'0 0.0
2016-May-18 13:30N 59°36' E 005°48'5 4.8
2016-May-18 12:33N 59°40' E 005°43'8 8.4
2016-May-18 11:33N 59°47' E 005°35'  

Dump ship's entire track history